sensor_id;sensor_type;location;lat;lon;timestamp;temperature;humidity
51655;DHT22;37732;53.106;7.030;2024-03-08T00:02:23;1.40;99.90
51655;DHT22;37732;53.106;7.030;2024-03-08T00:04:49;1.50;99.90
51655;DHT22;37732;53.106;7.030;2024-03-08T00:07:15;1.40;99.90
51655;DHT22;37732;53.106;7.030;2024-03-08T00:09:41;1.40;99.90
51655;DHT22;37732;53.106;7.030;2024-03-08T00:12:07;1.40;99.90
51655;DHT22;37732;53.106;7.030;2024-03-08T00:14:32;1.40;99.90
51655;DHT22;37732;53.106;7.030;2024-03-08T00:16:58;1.40;99.90
51655;DHT22;37732;53.106;7.030;2024-03-08T00:19:24;1.40;99.90
51655;DHT22;37732;53.106;7.030;2024-03-08T00:21:50;1.40;99.90
51655;DHT22;37732;53.106;7.030;2024-03-08T00:24:15;1.40;99.90
51655;DHT22;37732;53.106;7.030;2024-03-08T00:26:41;1.40;99.90
51655;DHT22;37732;53.106;7.030;2024-03-08T00:29:09;1.40;99.90
51655;DHT22;37732;53.106;7.030;2024-03-08T00:31:35;1.40;99.90
51655;DHT22;37732;53.106;7.030;2024-03-08T00:34:01;1.40;99.90
51655;DHT22;37732;53.106;7.030;2024-03-08T00:36:26;1.40;99.90
51655;DHT22;37732;53.106;7.030;2024-03-08T00:38:52;1.40;99.90
51655;DHT22;37732;53.106;7.030;2024-03-08T00:41:18;1.30;99.90
51655;DHT22;37732;53.106;7.030;2024-03-08T00:43:44;1.40;99.90
51655;DHT22;37732;53.106;7.030;2024-03-08T00:46:09;1.40;99.90
51655;DHT22;37732;53.106;7.030;2024-03-08T00:48:35;1.30;99.90
51655;DHT22;37732;53.106;7.030;2024-03-08T00:51:02;1.40;99.90
51655;DHT22;37732;53.106;7.030;2024-03-08T00:53:27;1.40;99.90
51655;DHT22;37732;53.106;7.030;2024-03-08T00:55:53;1.40;99.90
51655;DHT22;37732;53.106;7.030;2024-03-08T00:58:20;1.40;99.90
51655;DHT22;37732;53.106;7.030;2024-03-08T01:00:46;1.30;99.90
51655;DHT22;37732;53.106;7.030;2024-03-08T01:03:12;1.30;99.90
51655;DHT22;37732;53.106;7.030;2024-03-08T01:05:38;1.30;99.90
51655;DHT22;37732;53.106;7.030;2024-03-08T01:08:04;1.30;99.90
51655;DHT22;37732;53.106;7.030;2024-03-08T01:10:30;1.30;99.90
51655;DHT22;37732;53.106;7.030;2024-03-08T01:12:56;1.30;99.90
51655;DHT22;37732;53.106;7.030;2024-03-08T01:15:23;1.30;99.90
51655;DHT22;37732;53.106;7.030;2024-03-08T01:17:49;1.30;99.90
51655;DHT22;37732;53.106;7.030;2024-03-08T01:20:15;1.20;99.90
51655;DHT22;37732;53.106;7.030;2024-03-08T01:22:41;1.20;99.90
51655;DHT22;37732;53.106;7.030;2024-03-08T01:25:07;1.20;99.90
51655;DHT22;37732;53.106;7.030;2024-03-08T01:27:34;1.20;99.90
51655;DHT22;37732;53.106;7.030;2024-03-08T01:30:01;1.20;99.90
51655;DHT22;37732;53.106;7.030;2024-03-08T01:32:27;1.20;99.90
51655;DHT22;37732;53.106;7.030;2024-03-08T01:34:53;1.20;99.90
51655;DHT22;37732;53.106;7.030;2024-03-08T01:37:18;1.10;99.90
51655;DHT22;37732;53.106;7.030;2024-03-08T01:39:45;1.10;99.90
51655;DHT22;37732;53.106;7.030;2024-03-08T01:42:11;1.10;99.90
51655;DHT22;37732;53.106;7.030;2024-03-08T01:44:40;1.10;99.90
51655;DHT22;37732;53.106;7.030;2024-03-08T01:47:07;1.10;99.90
51655;DHT22;37732;53.106;7.030;2024-03-08T01:49:32;1.00;99.90
51655;DHT22;37732;53.106;7.030;2024-03-08T01:51:59;1.00;99.90
51655;DHT22;37732;53.106;7.030;2024-03-08T01:54:25;1.00;99.90
51655;DHT22;37732;53.106;7.030;2024-03-08T01:56:52;1.00;99.90
51655;DHT22;37732;53.106;7.030;2024-03-08T01:59:19;1.00;99.90
51655;DHT22;37732;53.106;7.030;2024-03-08T02:01:45;1.00;99.90
51655;DHT22;37732;53.106;7.030;2024-03-08T02:04:10;1.00;99.90
51655;DHT22;37732;53.106;7.030;2024-03-08T02:06:36;0.90;99.90
51655;DHT22;37732;53.106;7.030;2024-03-08T02:09:03;0.90;99.90
51655;DHT22;37732;53.106;7.030;2024-03-08T02:11:33;0.90;99.90
51655;DHT22;37732;53.106;7.030;2024-03-08T02:13:59;0.90;99.90
51655;DHT22;37732;53.106;7.030;2024-03-08T02:16:25;0.90;99.90
51655;DHT22;37732;53.106;7.030;2024-03-08T02:18:50;0.90;99.90
51655;DHT22;37732;53.106;7.030;2024-03-08T02:21:17;0.80;99.90
51655;DHT22;37732;53.106;7.030;2024-03-08T02:23:44;0.80;99.90
51655;DHT22;37732;53.106;7.030;2024-03-08T02:26:09;1.00;99.90
51655;DHT22;37732;53.106;7.030;2024-03-08T02:28:36;0.80;99.90
51655;DHT22;37732;53.106;7.030;2024-03-08T02:31:02;0.80;99.90
51655;DHT22;37732;53.106;7.030;2024-03-08T02:33:28;0.80;99.90
51655;DHT22;37732;53.106;7.030;2024-03-08T02:35:54;0.80;99.90
51655;DHT22;37732;53.106;7.030;2024-03-08T02:38:22;0.70;99.90
51655;DHT22;37732;53.106;7.030;2024-03-08T02:40:50;0.70;99.90
51655;DHT22;37732;53.106;7.030;2024-03-08T02:43:17;0.70;99.90
51655;DHT22;37732;53.106;7.030;2024-03-08T02:45:44;0.70;99.90
51655;DHT22;37732;53.106;7.030;2024-03-08T02:48:11;0.70;99.90
51655;DHT22;37732;53.106;7.030;2024-03-08T02:50:38;0.70;99.90
51655;DHT22;37732;53.106;7.030;2024-03-08T02:53:06;0.70;99.90
51655;DHT22;37732;53.106;7.030;2024-03-08T02:55:32;0.60;99.90
51655;DHT22;37732;53.106;7.030;2024-03-08T02:58:04;0.70;99.90
51655;DHT22;37732;53.106;7.030;2024-03-08T03:00:31;0.60;99.90
51655;DHT22;37732;53.106;7.030;2024-03-08T03:02:58;0.60;99.90
51655;DHT22;37732;53.106;7.030;2024-03-08T03:05:24;0.60;99.90
51655;DHT22;37732;53.106;7.030;2024-03-08T03:07:50;0.60;99.90
51655;DHT22;37732;53.106;7.030;2024-03-08T03:10:17;0.60;99.90
51655;DHT22;37732;53.106;7.030;2024-03-08T03:12:44;0.50;99.90
51655;DHT22;37732;53.106;7.030;2024-03-08T03:15:13;0.60;99.90
51655;DHT22;37732;53.106;7.030;2024-03-08T03:17:48;0.60;99.90
51655;DHT22;37732;53.106;7.030;2024-03-08T03:20:17;0.50;99.90
51655;DHT22;37732;53.106;7.030;2024-03-08T03:22:49;0.50;99.90
51655;DHT22;37732;53.106;7.030;2024-03-08T03:25:21;0.50;99.90
51655;DHT22;37732;53.106;7.030;2024-03-08T03:27:53;0.50;99.90
51655;DHT22;37732;53.106;7.030;2024-03-08T03:30:22;0.50;99.90
51655;DHT22;37732;53.106;7.030;2024-03-08T03:32:49;0.40;99.90
51655;DHT22;37732;53.106;7.030;2024-03-08T03:35:17;0.40;99.90
51655;DHT22;37732;53.106;7.030;2024-03-08T03:37:43;0.40;99.90
51655;DHT22;37732;53.106;7.030;2024-03-08T03:40:17;0.40;99.90
51655;DHT22;37732;53.106;7.030;2024-03-08T03:42:44;0.40;99.90
51655;DHT22;37732;53.106;7.030;2024-03-08T03:45:11;0.30;99.90
51655;DHT22;37732;53.106;7.030;2024-03-08T03:47:37;0.30;99.90
51655;DHT22;37732;53.106;7.030;2024-03-08T03:50:05;0.30;99.90
51655;DHT22;37732;53.106;7.030;2024-03-08T03:52:31;0.30;99.90
51655;DHT22;37732;53.106;7.030;2024-03-08T03:54:57;0.30;99.90
51655;DHT22;37732;53.106;7.030;2024-03-08T03:57:23;0.50;99.90
51655;DHT22;37732;53.106;7.030;2024-03-08T03:59:49;0.30;99.90
51655;DHT22;37732;53.106;7.030;2024-03-08T04:02:17;0.20;99.90
51655;DHT22;37732;53.106;7.030;2024-03-08T04:04:43;0.10;99.90
51655;DHT22;37732;53.106;7.030;2024-03-08T04:07:11;0.50;99.90
51655;DHT22;37732;53.106;7.030;2024-03-08T04:09:36;0.30;99.90
51655;DHT22;37732;53.106;7.030;2024-03-08T04:12:02;0.30;99.90
51655;DHT22;37732;53.106;7.030;2024-03-08T04:14:28;0.10;99.90
51655;DHT22;37732;53.106;7.030;2024-03-08T04:16:54;0.10;99.90
51655;DHT22;37732;53.106;7.030;2024-03-08T04:19:19;0.60;99.90
51655;DHT22;37732;53.106;7.030;2024-03-08T04:21:45;0.30;99.90
51655;DHT22;37732;53.106;7.030;2024-03-08T04:24:11;0.10;99.90
51655;DHT22;37732;53.106;7.030;2024-03-08T04:26:36;0.20;99.90
51655;DHT22;37732;53.106;7.030;2024-03-08T04:29:03;0.30;99.90
51655;DHT22;37732;53.106;7.030;2024-03-08T04:31:29;0.10;99.90
51655;DHT22;37732;53.106;7.030;2024-03-08T04:33:56;0.40;99.90
51655;DHT22;37732;53.106;7.030;2024-03-08T04:36:22;0.30;99.90
51655;DHT22;37732;53.106;7.030;2024-03-08T04:38:48;0.20;99.90
51655;DHT22;37732;53.106;7.030;2024-03-08T04:41:14;0.20;99.90
51655;DHT22;37732;53.106;7.030;2024-03-08T04:43:40;0.10;99.90
51655;DHT22;37732;53.106;7.030;2024-03-08T04:46:06;0.20;99.90
51655;DHT22;37732;53.106;7.030;2024-03-08T04:48:31;0.10;99.90
51655;DHT22;37732;53.106;7.030;2024-03-08T04:50:57;0.10;99.90
51655;DHT22;37732;53.106;7.030;2024-03-08T04:53:23;0.30;99.90
51655;DHT22;37732;53.106;7.030;2024-03-08T04:55:49;0.10;99.90
51655;DHT22;37732;53.106;7.030;2024-03-08T04:58:14;0.10;99.90
51655;DHT22;37732;53.106;7.030;2024-03-08T05:00:40;0.00;99.90
51655;DHT22;37732;53.106;7.030;2024-03-08T05:03:06;0.00;99.90
51655;DHT22;37732;53.106;7.030;2024-03-08T05:05:32;0.10;99.90
51655;DHT22;37732;53.106;7.030;2024-03-08T05:07:58;0.00;99.90
51655;DHT22;37732;53.106;7.030;2024-03-08T05:10:24;0.10;99.90
51655;DHT22;37732;53.106;7.030;2024-03-08T05:12:50;-0.10;99.90
51655;DHT22;37732;53.106;7.030;2024-03-08T05:15:16;0.20;99.90
51655;DHT22;37732;53.106;7.030;2024-03-08T05:17:41;0.10;99.90
51655;DHT22;37732;53.106;7.030;2024-03-08T05:20:07;0.00;99.90
51655;DHT22;37732;53.106;7.030;2024-03-08T05:22:34;0.00;99.90
51655;DHT22;37732;53.106;7.030;2024-03-08T05:24:59;0.00;99.90
51655;DHT22;37732;53.106;7.030;2024-03-08T05:27:26;0.10;99.90
51655;DHT22;37732;53.106;7.030;2024-03-08T05:29:53;0.00;99.90
51655;DHT22;37732;53.106;7.030;2024-03-08T05:32:19;0.20;99.90
51655;DHT22;37732;53.106;7.030;2024-03-08T05:34:45;0.00;99.90
51655;DHT22;37732;53.106;7.030;2024-03-08T05:37:11;0.00;99.90
51655;DHT22;37732;53.106;7.030;2024-03-08T05:39:36;-0.10;99.90
51655;DHT22;37732;53.106;7.030;2024-03-08T05:42:02;0.00;99.90
51655;DHT22;37732;53.106;7.030;2024-03-08T05:44:28;0.00;99.90
51655;DHT22;37732;53.106;7.030;2024-03-08T05:46:54;-0.30;99.90
51655;DHT22;37732;53.106;7.030;2024-03-08T05:49:21;0.00;99.90
51655;DHT22;37732;53.106;7.030;2024-03-08T05:51:47;0.10;99.90
51655;DHT22;37732;53.106;7.030;2024-03-08T05:54:13;0.10;99.90
51655;DHT22;37732;53.106;7.030;2024-03-08T05:56:39;0.00;99.90
51655;DHT22;37732;53.106;7.030;2024-03-08T05:59:09;0.00;99.90
51655;DHT22;37732;53.106;7.030;2024-03-08T06:01:35;0.00;99.90
51655;DHT22;37732;53.106;7.030;2024-03-08T06:04:02;0.10;99.90
51655;DHT22;37732;53.106;7.030;2024-03-08T06:06:28;-0.20;99.90
51655;DHT22;37732;53.106;7.030;2024-03-08T06:08:55;0.20;99.90
51655;DHT22;37732;53.106;7.030;2024-03-08T06:11:24;-0.10;99.90
51655;DHT22;37732;53.106;7.030;2024-03-08T06:13:52;0.00;99.90
51655;DHT22;37732;53.106;7.030;2024-03-08T06:16:26;0.20;99.90
51655;DHT22;37732;53.106;7.030;2024-03-08T06:18:58;0.00;99.90
51655;DHT22;37732;53.106;7.030;2024-03-08T06:21:24;0.00;99.90
51655;DHT22;37732;53.106;7.030;2024-03-08T06:23:54;0.10;99.90
51655;DHT22;37732;53.106;7.030;2024-03-08T06:26:21;-0.10;99.90
51655;DHT22;37732;53.106;7.030;2024-03-08T06:28:48;0.20;99.90
51655;DHT22;37732;53.106;7.030;2024-03-08T06:31:13;0.00;99.90
51655;DHT22;37732;53.106;7.030;2024-03-08T06:33:40;0.10;99.90
51655;DHT22;37732;53.106;7.030;2024-03-08T06:36:06;0.40;99.90
51655;DHT22;37732;53.106;7.030;2024-03-08T06:38:32;0.20;99.90
51655;DHT22;37732;53.106;7.030;2024-03-08T06:40:58;0.10;99.90
51655;DHT22;37732;53.106;7.030;2024-03-08T06:43:24;0.20;99.90
51655;DHT22;37732;53.106;7.030;2024-03-08T06:45:58;0.30;99.90
51655;DHT22;37732;53.106;7.030;2024-03-08T06:48:23;0.20;99.90
51655;DHT22;37732;53.106;7.030;2024-03-08T06:50:49;0.30;99.90
51655;DHT22;37732;53.106;7.030;2024-03-08T06:53:15;0.40;99.90
51655;DHT22;37732;53.106;7.030;2024-03-08T06:55:40;0.50;99.90
51655;DHT22;37732;53.106;7.030;2024-03-08T06:58:06;0.60;99.90
51655;DHT22;37732;53.106;7.030;2024-03-08T07:00:36;0.60;99.90
51655;DHT22;37732;53.106;7.030;2024-03-08T07:03:02;0.70;99.90
51655;DHT22;37732;53.106;7.030;2024-03-08T07:05:29;0.70;99.90
51655;DHT22;37732;53.106;7.030;2024-03-08T07:07:55;0.60;99.90
51655;DHT22;37732;53.106;7.030;2024-03-08T07:10:22;1.10;99.90
51655;DHT22;37732;53.106;7.030;2024-03-08T07:12:50;0.70;99.90
51655;DHT22;37732;53.106;7.030;2024-03-08T07:15:16;1.00;99.90
51655;DHT22;37732;53.106;7.030;2024-03-08T07:17:45;1.10;99.90
51655;DHT22;37732;53.106;7.030;2024-03-08T07:20:11;1.20;99.90
51655;DHT22;37732;53.106;7.030;2024-03-08T07:22:39;1.30;99.90
51655;DHT22;37732;53.106;7.030;2024-03-08T07:25:08;1.40;99.90
51655;DHT22;37732;53.106;7.030;2024-03-08T07:27:51;1.50;99.90
51655;DHT22;37732;53.106;7.030;2024-03-08T07:30:18;1.60;99.90
51655;DHT22;37732;53.106;7.030;2024-03-08T07:33:02;1.90;99.90
51655;DHT22;37732;53.106;7.030;2024-03-08T07:35:31;1.90;99.90
51655;DHT22;37732;53.106;7.030;2024-03-08T07:37:57;2.00;99.90
51655;DHT22;37732;53.106;7.030;2024-03-08T07:40:23;1.80;99.90
51655;DHT22;37732;53.106;7.030;2024-03-08T07:42:49;2.20;99.90
51655;DHT22;37732;53.106;7.030;2024-03-08T07:45:16;2.20;99.90
51655;DHT22;37732;53.106;7.030;2024-03-08T07:47:43;2.60;99.90
51655;DHT22;37732;53.106;7.030;2024-03-08T07:50:09;2.60;99.90
51655;DHT22;37732;53.106;7.030;2024-03-08T07:52:35;2.80;99.90
51655;DHT22;37732;53.106;7.030;2024-03-08T07:55:05;2.60;99.90
51655;DHT22;37732;53.106;7.030;2024-03-08T07:57:31;2.70;99.90
51655;DHT22;37732;53.106;7.030;2024-03-08T07:59:57;2.90;99.90
51655;DHT22;37732;53.106;7.030;2024-03-08T08:02:26;3.00;99.90
51655;DHT22;37732;53.106;7.030;2024-03-08T08:04:52;3.10;99.90
51655;DHT22;37732;53.106;7.030;2024-03-08T08:07:18;3.20;99.90
51655;DHT22;37732;53.106;7.030;2024-03-08T08:09:44;3.20;99.90
51655;DHT22;37732;53.106;7.030;2024-03-08T08:12:10;3.30;99.90
51655;DHT22;37732;53.106;7.030;2024-03-08T08:14:38;3.50;99.90
51655;DHT22;37732;53.106;7.030;2024-03-08T08:17:04;3.50;99.90
51655;DHT22;37732;53.106;7.030;2024-03-08T08:19:31;3.50;99.90
51655;DHT22;37732;53.106;7.030;2024-03-08T08:21:57;3.50;99.90
51655;DHT22;37732;53.106;7.030;2024-03-08T08:24:23;3.80;99.90
51655;DHT22;37732;53.106;7.030;2024-03-08T08:26:50;3.90;99.90
51655;DHT22;37732;53.106;7.030;2024-03-08T08:29:16;4.00;99.90
51655;DHT22;37732;53.106;7.030;2024-03-08T08:31:41;3.90;99.90
51655;DHT22;37732;53.106;7.030;2024-03-08T08:34:09;4.00;99.90
51655;DHT22;37732;53.106;7.030;2024-03-08T08:36:37;3.70;99.90
51655;DHT22;37732;53.106;7.030;2024-03-08T08:39:05;4.00;99.90
51655;DHT22;37732;53.106;7.030;2024-03-08T08:41:31;3.90;99.90
51655;DHT22;37732;53.106;7.030;2024-03-08T08:43:57;4.00;99.90
51655;DHT22;37732;53.106;7.030;2024-03-08T08:46:23;4.10;99.90
51655;DHT22;37732;53.106;7.030;2024-03-08T08:48:48;4.20;99.90
51655;DHT22;37732;53.106;7.030;2024-03-08T08:51:14;4.10;99.90
51655;DHT22;37732;53.106;7.030;2024-03-08T08:53:41;4.20;99.90
51655;DHT22;37732;53.106;7.030;2024-03-08T08:56:15;4.30;99.90
51655;DHT22;37732;53.106;7.030;2024-03-08T08:58:44;4.30;99.90
51655;DHT22;37732;53.106;7.030;2024-03-08T09:01:10;4.30;99.90
51655;DHT22;37732;53.106;7.030;2024-03-08T09:03:37;4.40;99.90
51655;DHT22;37732;53.106;7.030;2024-03-08T09:06:09;4.50;99.90
51655;DHT22;37732;53.106;7.030;2024-03-08T09:08:38;4.60;99.90
51655;DHT22;37732;53.106;7.030;2024-03-08T09:11:04;4.40;99.90
51655;DHT22;37732;53.106;7.030;2024-03-08T09:13:31;4.60;99.90
51655;DHT22;37732;53.106;7.030;2024-03-08T09:15:56;4.50;99.90
51655;DHT22;37732;53.106;7.030;2024-03-08T09:18:22;4.50;99.90
51655;DHT22;37732;53.106;7.030;2024-03-08T09:20:49;4.40;99.90
51655;DHT22;37732;53.106;7.030;2024-03-08T09:23:19;4.40;99.90
51655;DHT22;37732;53.106;7.030;2024-03-08T09:25:45;4.40;99.90
51655;DHT22;37732;53.106;7.030;2024-03-08T09:28:12;4.20;99.90
51655;DHT22;37732;53.106;7.030;2024-03-08T09:30:38;4.30;99.90
51655;DHT22;37732;53.106;7.030;2024-03-08T09:33:05;4.40;99.90
51655;DHT22;37732;53.106;7.030;2024-03-08T09:35:31;4.40;99.90
51655;DHT22;37732;53.106;7.030;2024-03-08T09:37:57;4.50;99.90
51655;DHT22;37732;53.106;7.030;2024-03-08T09:40:23;4.50;99.90
51655;DHT22;37732;53.106;7.030;2024-03-08T09:42:51;4.60;99.90
51655;DHT22;37732;53.106;7.030;2024-03-08T09:45:20;4.70;99.90
51655;DHT22;37732;53.106;7.030;2024-03-08T09:47:47;4.80;99.90
51655;DHT22;37732;53.106;7.030;2024-03-08T09:50:14;4.90;99.90
51655;DHT22;37732;53.106;7.030;2024-03-08T09:52:47;5.00;99.90
51655;DHT22;37732;53.106;7.030;2024-03-08T09:55:13;5.00;99.90
51655;DHT22;37732;53.106;7.030;2024-03-08T09:57:43;5.10;99.90
51655;DHT22;37732;53.106;7.030;2024-03-08T10:00:31;5.10;99.90
51655;DHT22;37732;53.106;7.030;2024-03-08T10:03:01;5.10;99.90
51655;DHT22;37732;53.106;7.030;2024-03-08T10:05:27;5.20;99.90
51655;DHT22;37732;53.106;7.030;2024-03-08T10:07:53;5.30;99.90
51655;DHT22;37732;53.106;7.030;2024-03-08T10:10:19;5.30;99.90
51655;DHT22;37732;53.106;7.030;2024-03-08T10:12:46;5.40;99.90
51655;DHT22;37732;53.106;7.030;2024-03-08T10:15:11;5.50;99.90
51655;DHT22;37732;53.106;7.030;2024-03-08T10:17:42;5.50;99.90
51655;DHT22;37732;53.106;7.030;2024-03-08T10:20:15;5.60;99.90
51655;DHT22;37732;53.106;7.030;2024-03-08T10:22:41;5.70;99.90
51655;DHT22;37732;53.106;7.030;2024-03-08T10:25:11;5.70;99.90
51655;DHT22;37732;53.106;7.030;2024-03-08T10:27:40;5.70;99.90
51655;DHT22;37732;53.106;7.030;2024-03-08T10:30:16;5.80;99.90
51655;DHT22;37732;53.106;7.030;2024-03-08T10:32:47;5.90;99.90
51655;DHT22;37732;53.106;7.030;2024-03-08T10:35:14;6.00;99.90
51655;DHT22;37732;53.106;7.030;2024-03-08T10:40:10;6.20;99.90
51655;DHT22;37732;53.106;7.030;2024-03-08T10:42:53;6.40;99.90
51655;DHT22;37732;53.106;7.030;2024-03-08T10:48:04;6.50;99.90
51655;DHT22;37732;53.106;7.030;2024-03-08T10:50:34;6.60;99.90
51655;DHT22;37732;53.106;7.030;2024-03-08T10:53:01;6.60;99.90
51655;DHT22;37732;53.106;7.030;2024-03-08T10:55:29;6.70;99.90
51655;DHT22;37732;53.106;7.030;2024-03-08T10:57:55;6.70;99.90
51655;DHT22;37732;53.106;7.030;2024-03-08T11:00:21;6.80;99.90
51655;DHT22;37732;53.106;7.030;2024-03-08T11:02:56;6.80;99.90
51655;DHT22;37732;53.106;7.030;2024-03-08T11:05:41;6.90;99.90
51655;DHT22;37732;53.106;7.030;2024-03-08T11:08:18;7.10;99.90
51655;DHT22;37732;53.106;7.030;2024-03-08T11:10:51;7.10;99.90
51655;DHT22;37732;53.106;7.030;2024-03-08T11:13:48;7.20;99.90
51655;DHT22;37732;53.106;7.030;2024-03-08T11:19:00;7.30;99.90
51655;DHT22;37732;53.106;7.030;2024-03-08T11:21:30;7.30;99.90
51655;DHT22;37732;53.106;7.030;2024-03-08T11:24:09;7.40;99.90
51655;DHT22;37732;53.106;7.030;2024-03-08T11:26:37;7.50;99.90
51655;DHT22;37732;53.106;7.030;2024-03-08T11:32:12;7.60;99.90
51655;DHT22;37732;53.106;7.030;2024-03-08T11:34:49;7.70;99.90
51655;DHT22;37732;53.106;7.030;2024-03-08T11:37:17;7.60;99.90
51655;DHT22;37732;53.106;7.030;2024-03-08T11:39:54;7.70;99.90
51655;DHT22;37732;53.106;7.030;2024-03-08T11:42:25;7.70;99.90
51655;DHT22;37732;53.106;7.030;2024-03-08T11:44:53;7.80;99.90
51655;DHT22;37732;53.106;7.030;2024-03-08T11:47:21;8.00;99.90
51655;DHT22;37732;53.106;7.030;2024-03-08T11:49:47;8.10;99.90
51655;DHT22;37732;53.106;7.030;2024-03-08T11:52:16;8.20;99.90
51655;DHT22;37732;53.106;7.030;2024-03-08T11:54:52;8.20;99.90
51655;DHT22;37732;53.106;7.030;2024-03-08T11:57:23;8.10;99.90
51655;DHT22;37732;53.106;7.030;2024-03-08T11:59:52;8.20;99.90
51655;DHT22;37732;53.106;7.030;2024-03-08T12:02:18;8.30;99.90
51655;DHT22;37732;53.106;7.030;2024-03-08T12:04:47;8.30;99.90
51655;DHT22;37732;53.106;7.030;2024-03-08T12:07:21;8.40;99.90
51655;DHT22;37732;53.106;7.030;2024-03-08T12:10:19;8.40;99.90
51655;DHT22;37732;53.106;7.030;2024-03-08T12:12:52;8.40;99.90
51655;DHT22;37732;53.106;7.030;2024-03-08T12:15:22;8.50;99.90
51655;DHT22;37732;53.106;7.030;2024-03-08T12:17:50;8.50;99.90
51655;DHT22;37732;53.106;7.030;2024-03-08T12:20:19;8.60;99.90
51655;DHT22;37732;53.106;7.030;2024-03-08T12:22:50;8.70;99.90
51655;DHT22;37732;53.106;7.030;2024-03-08T12:25:18;8.70;99.90
51655;DHT22;37732;53.106;7.030;2024-03-08T12:27:44;8.70;99.90
51655;DHT22;37732;53.106;7.030;2024-03-08T12:32:59;8.90;99.90
51655;DHT22;37732;53.106;7.030;2024-03-08T12:35:29;9.00;99.90
51655;DHT22;37732;53.106;7.030;2024-03-08T12:37:56;9.00;99.90
51655;DHT22;37732;53.106;7.030;2024-03-08T12:40:29;9.10;99.90
51655;DHT22;37732;53.106;7.030;2024-03-08T12:43:00;9.20;99.90
51655;DHT22;37732;53.106;7.030;2024-03-08T12:45:27;9.20;99.90
51655;DHT22;37732;53.106;7.030;2024-03-08T12:47:54;9.30;99.90
51655;DHT22;37732;53.106;7.030;2024-03-08T12:50:22;9.40;99.90
51655;DHT22;37732;53.106;7.030;2024-03-08T12:52:48;9.50;99.90
51655;DHT22;37732;53.106;7.030;2024-03-08T12:55:15;9.50;99.90
51655;DHT22;37732;53.106;7.030;2024-03-08T12:57:42;9.50;99.90
51655;DHT22;37732;53.106;7.030;2024-03-08T13:00:08;9.50;99.90
51655;DHT22;37732;53.106;7.030;2024-03-08T13:02:41;9.50;99.90
51655;DHT22;37732;53.106;7.030;2024-03-08T13:05:07;9.50;99.90
51655;DHT22;37732;53.106;7.030;2024-03-08T13:07:35;9.60;99.90
51655;DHT22;37732;53.106;7.030;2024-03-08T13:10:03;9.60;99.90
51655;DHT22;37732;53.106;7.030;2024-03-08T13:12:30;9.60;99.90
51655;DHT22;37732;53.106;7.030;2024-03-08T13:14:55;9.60;99.90
51655;DHT22;37732;53.106;7.030;2024-03-08T13:17:22;9.60;99.90
51655;DHT22;37732;53.106;7.030;2024-03-08T13:19:48;9.60;99.90
51655;DHT22;37732;53.106;7.030;2024-03-08T13:22:14;9.60;99.90
51655;DHT22;37732;53.106;7.030;2024-03-08T13:24:45;9.70;99.90
51655;DHT22;37732;53.106;7.030;2024-03-08T13:27:11;9.80;99.90
51655;DHT22;37732;53.106;7.030;2024-03-08T13:29:46;9.70;99.90
51655;DHT22;37732;53.106;7.030;2024-03-08T13:32:14;9.70;99.90
51655;DHT22;37732;53.106;7.030;2024-03-08T13:34:44;9.70;99.90
51655;DHT22;37732;53.106;7.030;2024-03-08T13:37:16;9.70;99.90
51655;DHT22;37732;53.106;7.030;2024-03-08T13:39:43;9.70;99.90
51655;DHT22;37732;53.106;7.030;2024-03-08T13:44:39;9.80;99.90
51655;DHT22;37732;53.106;7.030;2024-03-08T13:47:06;9.70;99.90
51655;DHT22;37732;53.106;7.030;2024-03-08T13:49:32;9.70;99.90
51655;DHT22;37732;53.106;7.030;2024-03-08T13:52:01;9.60;99.90
51655;DHT22;37732;53.106;7.030;2024-03-08T13:54:26;9.50;99.90
51655;DHT22;37732;53.106;7.030;2024-03-08T13:56:53;9.50;99.90
51655;DHT22;37732;53.106;7.030;2024-03-08T13:59:20;9.50;99.90
51655;DHT22;37732;53.106;7.030;2024-03-08T14:01:50;9.50;99.90
51655;DHT22;37732;53.106;7.030;2024-03-08T14:04:16;9.50;99.90
51655;DHT22;37732;53.106;7.030;2024-03-08T14:06:43;9.50;99.90
51655;DHT22;37732;53.106;7.030;2024-03-08T14:09:11;9.50;99.90
51655;DHT22;37732;53.106;7.030;2024-03-08T14:11:43;9.50;99.90
51655;DHT22;37732;53.106;7.030;2024-03-08T14:14:10;9.50;99.90
51655;DHT22;37732;53.106;7.030;2024-03-08T14:16:39;9.60;99.90
51655;DHT22;37732;53.106;7.030;2024-03-08T14:19:04;9.50;99.90
51655;DHT22;37732;53.106;7.030;2024-03-08T14:21:34;9.50;99.90
51655;DHT22;37732;53.106;7.030;2024-03-08T14:24:00;9.40;99.90
51655;DHT22;37732;53.106;7.030;2024-03-08T14:26:26;9.40;99.90
51655;DHT22;37732;53.106;7.030;2024-03-08T14:28:52;9.40;99.90
51655;DHT22;37732;53.106;7.030;2024-03-08T14:31:20;9.40;99.90
51655;DHT22;37732;53.106;7.030;2024-03-08T14:33:46;9.40;99.90
51655;DHT22;37732;53.106;7.030;2024-03-08T14:36:15;9.30;99.90
51655;DHT22;37732;53.106;7.030;2024-03-08T14:38:49;9.30;99.90
51655;DHT22;37732;53.106;7.030;2024-03-08T14:41:14;9.30;99.90
51655;DHT22;37732;53.106;7.030;2024-03-08T14:43:44;9.20;99.90
51655;DHT22;37732;53.106;7.030;2024-03-08T14:46:13;9.20;99.90
51655;DHT22;37732;53.106;7.030;2024-03-08T14:48:52;9.20;99.90
51655;DHT22;37732;53.106;7.030;2024-03-08T14:51:19;9.10;99.90
51655;DHT22;37732;53.106;7.030;2024-03-08T14:53:47;9.00;99.90
51655;DHT22;37732;53.106;7.030;2024-03-08T14:56:13;9.00;99.90
51655;DHT22;37732;53.106;7.030;2024-03-08T14:58:43;8.90;99.90
51655;DHT22;37732;53.106;7.030;2024-03-08T15:01:10;8.90;99.90
51655;DHT22;37732;53.106;7.030;2024-03-08T15:03:38;8.90;99.90
51655;DHT22;37732;53.106;7.030;2024-03-08T15:06:04;8.90;99.90
51655;DHT22;37732;53.106;7.030;2024-03-08T15:08:37;8.90;99.90
51655;DHT22;37732;53.106;7.030;2024-03-08T15:11:04;8.90;99.90
51655;DHT22;37732;53.106;7.030;2024-03-08T15:13:35;8.80;99.90
51655;DHT22;37732;53.106;7.030;2024-03-08T15:16:08;8.70;99.90
51655;DHT22;37732;53.106;7.030;2024-03-08T15:18:35;8.80;99.90
51655;DHT22;37732;53.106;7.030;2024-03-08T15:21:05;8.80;99.90
51655;DHT22;37732;53.106;7.030;2024-03-08T15:23:36;8.80;99.90
51655;DHT22;37732;53.106;7.030;2024-03-08T15:26:03;8.80;99.90
51655;DHT22;37732;53.106;7.030;2024-03-08T15:28:35;8.70;99.90
51655;DHT22;37732;53.106;7.030;2024-03-08T15:31:06;8.70;99.90
51655;DHT22;37732;53.106;7.030;2024-03-08T15:33:37;8.70;99.90
51655;DHT22;37732;53.106;7.030;2024-03-08T15:36:11;8.70;99.90
51655;DHT22;37732;53.106;7.030;2024-03-08T15:38:40;8.60;99.90
51655;DHT22;37732;53.106;7.030;2024-03-08T15:41:06;8.60;99.90
51655;DHT22;37732;53.106;7.030;2024-03-08T15:43:35;8.60;99.90
51655;DHT22;37732;53.106;7.030;2024-03-08T15:46:03;8.60;99.90
51655;DHT22;37732;53.106;7.030;2024-03-08T15:48:34;8.50;99.90
51655;DHT22;37732;53.106;7.030;2024-03-08T15:51:01;8.50;99.90
51655;DHT22;37732;53.106;7.030;2024-03-08T15:53:28;8.40;99.90
51655;DHT22;37732;53.106;7.030;2024-03-08T15:55:59;8.40;99.90
51655;DHT22;37732;53.106;7.030;2024-03-08T15:58:25;8.40;99.90
51655;DHT22;37732;53.106;7.030;2024-03-08T16:00:51;8.40;99.90
51655;DHT22;37732;53.106;7.030;2024-03-08T16:03:19;8.30;99.90
51655;DHT22;37732;53.106;7.030;2024-03-08T16:05:47;8.30;99.90